createdAt,value
2023-02-09T00:03:45.939Z,3.40
2023-02-09T00:06:16.745Z,3.80
2023-02-09T00:08:43.874Z,3.65
2023-02-09T00:11:15.900Z,3.70
2023-02-09T00:13:43.985Z,4.05
2023-02-09T00:16:11.159Z,3.80
2023-02-09T00:18:38.020Z,3.72
2023-02-09T00:21:10.819Z,3.65
2023-02-09T00:23:40.446Z,3.40
2023-02-09T00:26:11.468Z,3.53
2023-02-09T00:28:41.250Z,4.00
2023-02-09T00:31:10.764Z,3.88
2023-02-09T00:33:40.966Z,3.47
2023-02-09T00:36:11.948Z,4.05
2023-02-09T00:38:39.592Z,3.58
2023-02-09T00:41:07.292Z,3.80
2023-02-09T00:43:34.369Z,3.50
2023-02-09T00:46:01.176Z,3.67
2023-02-09T00:48:28.299Z,3.22
2023-02-09T00:50:56.668Z,3.50
2023-02-09T00:53:24.005Z,3.70
2023-02-09T00:55:51.033Z,3.83
2023-02-09T00:58:20.618Z,3.65
2023-02-09T01:00:48.757Z,3.80
2023-02-09T01:03:15.363Z,4.15
2023-02-09T01:05:42.904Z,3.80
2023-02-09T01:08:11.129Z,3.85
2023-02-09T01:10:38.583Z,3.50
2023-02-09T01:13:06.068Z,3.50
2023-02-09T01:15:33.087Z,3.95
2023-02-09T01:18:00.232Z,3.95
2023-02-09T01:20:27.731Z,3.63
2023-02-09T01:22:54.654Z,3.97
2023-02-09T01:25:21.391Z,4.15
2023-02-09T01:27:48.262Z,3.75
2023-02-09T01:30:15.581Z,3.88
2023-02-09T01:32:42.552Z,3.80
2023-02-09T01:35:10.627Z,4.15
2023-02-09T01:37:37.452Z,3.60
2023-02-09T01:40:05.493Z,3.90
2023-02-09T01:42:32.949Z,3.72
2023-02-09T01:45:08.734Z,3.92
2023-02-09T01:47:44.417Z,3.83
2023-02-09T01:50:12.002Z,3.92
2023-02-09T01:52:39.848Z,3.60
2023-02-09T01:55:10.989Z,4.25
2023-02-09T01:57:46.404Z,3.70
2023-02-09T02:00:17.995Z,3.50
2023-02-09T02:02:49.111Z,4.00
2023-02-09T02:05:17.624Z,3.67
2023-02-09T02:07:51.716Z,3.70
2023-02-09T02:10:18.530Z,3.63
2023-02-09T02:12:45.352Z,3.72
2023-02-09T02:15:12.777Z,3.78
2023-02-09T02:18:00.972Z,3.90
2023-02-09T02:21:02.790Z,3.40
2023-02-09T02:23:41.613Z,3.88
2023-02-09T02:29:03.064Z,3.80
2023-02-09T02:32:00.245Z,3.78
2023-02-09T02:34:51.745Z,4.10
2023-02-09T02:37:33.500Z,3.60
2023-02-09T02:40:12.135Z,4.10
2023-02-09T02:42:49.311Z,3.80
2023-02-09T02:45:28.445Z,3.60
2023-02-09T02:48:08.457Z,3.22
2023-02-09T02:50:39.905Z,3.20
2023-02-09T02:53:11.732Z,3.28
2023-02-09T02:55:39.657Z,3.50
2023-02-09T02:58:09.919Z,3.40
2023-02-09T03:00:45.324Z,3.60
2023-02-09T03:03:18.429Z,3.33
2023-02-09T03:05:46.086Z,3.22
2023-02-09T03:08:12.863Z,3.85
2023-02-09T03:10:41.088Z,3.38
2023-02-09T03:13:26.059Z,3.67
2023-02-09T03:16:02.401Z,3.80
2023-02-09T03:18:47.962Z,3.75
2023-02-09T03:21:16.836Z,3.30
2023-02-09T03:23:46.531Z,3.40
2023-02-09T03:26:21.418Z,3.33
2023-02-09T03:28:54.809Z,3.17
2023-02-09T03:31:22.438Z,3.20
2023-02-09T03:33:49.747Z,3.38
2023-02-09T03:36:19.475Z,3.33
2023-02-09T03:38:46.158Z,2.97
2023-02-09T03:41:12.861Z,3.20
2023-02-09T03:43:58.382Z,3.63
2023-02-09T03:46:25.283Z,3.38
2023-02-09T03:48:52.282Z,3.38
2023-02-09T03:51:18.983Z,3.08
2023-02-09T03:53:47.269Z,3.40
2023-02-09T03:56:14.055Z,3.10
2023-02-09T03:58:40.932Z,3.28
2023-02-09T04:01:09.805Z,3.17
2023-02-09T04:03:39.820Z,3.20
2023-02-09T04:06:07.446Z,3.25
2023-02-09T04:08:34.226Z,3.45
2023-02-09T04:11:01.073Z,3.40
2023-02-09T04:13:28.471Z,3.30
2023-02-09T04:15:55.244Z,3.40
2023-02-09T04:18:21.906Z,3.55
2023-02-09T04:20:48.542Z,3.38
2023-02-09T04:23:16.438Z,3.40
2023-02-09T04:25:43.239Z,3.17
2023-02-09T04:28:10.047Z,3.70
2023-02-09T04:30:36.855Z,3.35
2023-02-09T04:33:03.926Z,3.50
2023-02-09T04:35:30.729Z,3.60
2023-02-09T04:37:57.496Z,3.33
2023-02-09T04:40:24.184Z,3.60
2023-02-09T04:42:51.001Z,3.38
2023-02-09T04:45:18.012Z,4.00
2023-02-09T04:47:44.851Z,3.38
2023-02-09T04:50:11.685Z,3.70
2023-02-09T04:52:38.475Z,4.38
2023-02-09T04:55:05.502Z,3.47
2023-02-09T04:57:50.858Z,3.90
2023-02-09T05:00:17.849Z,4.25
2023-02-09T05:02:44.466Z,4.45
2023-02-09T05:05:11.123Z,3.75
2023-02-09T05:07:37.841Z,3.40
2023-02-09T05:10:04.799Z,4.20
2023-02-09T05:12:31.442Z,3.95
2023-02-09T05:14:58.025Z,4.13
2023-02-09T05:17:24.640Z,3.60
2023-02-09T05:19:51.365Z,4.20
2023-02-09T05:22:17.955Z,4.30
2023-02-09T05:24:44.621Z,4.22
2023-02-09T05:27:11.193Z,4.20
2023-02-09T05:29:37.976Z,3.88
2023-02-09T05:32:05.118Z,4.30
2023-02-09T05:34:33.476Z,4.30
2023-02-09T05:37:00.098Z,3.78
2023-02-09T05:39:29.682Z,4.82
2023-02-09T05:42:14.793Z,4.20
2023-02-09T05:44:43.543Z,4.00
2023-02-09T05:47:10.452Z,4.37
2023-02-09T05:49:37.350Z,3.60
2023-02-09T05:52:06.104Z,3.88
2023-02-09T05:54:32.929Z,4.50
2023-02-09T05:56:59.656Z,4.18
2023-02-09T05:59:26.576Z,4.18
2023-02-09T06:01:53.506Z,4.63
2023-02-09T06:04:20.790Z,4.70
2023-02-09T06:06:47.550Z,3.72
2023-02-09T06:09:14.328Z,4.03
2023-02-09T06:11:41.029Z,4.00
2023-02-09T06:14:07.901Z,4.10
2023-02-09T06:16:34.584Z,4.03
2023-02-09T06:19:01.289Z,3.78
2023-02-09T06:21:28.205Z,4.13
2023-02-09T06:23:55.067Z,4.10
2023-02-09T06:26:21.910Z,4.05
2023-02-09T06:28:48.591Z,3.92
2023-02-09T06:31:15.583Z,4.20
2023-02-09T06:33:42.598Z,4.40
2023-02-09T06:36:09.956Z,3.78
2023-02-09T06:38:37.769Z,4.18
2023-02-09T06:41:05.387Z,4.32
2023-02-09T06:43:32.305Z,4.38
2023-02-09T06:45:58.997Z,4.57
2023-02-09T06:48:25.635Z,4.43
2023-02-09T06:50:52.291Z,4.57
2023-02-09T06:53:19.269Z,4.57
2023-02-09T06:55:46.197Z,4.60
2023-02-09T06:58:12.977Z,4.70
2023-02-09T07:00:39.648Z,4.90
2023-02-09T07:03:06.331Z,5.00
2023-02-09T07:05:33.011Z,5.68
2023-02-09T07:07:59.738Z,5.35
2023-02-09T07:10:26.575Z,4.63
2023-02-09T07:12:53.423Z,4.80
2023-02-09T07:15:20.201Z,5.32
2023-02-09T07:17:46.966Z,4.72
2023-02-09T07:20:13.895Z,5.68
2023-02-09T07:22:41.172Z,4.97
2023-02-09T07:25:08.374Z,4.65
2023-02-09T07:27:35.278Z,4.80
2023-02-09T07:30:02.112Z,4.35
2023-02-09T07:32:28.791Z,4.97
2023-02-09T07:34:55.486Z,5.63
2023-02-09T07:37:22.417Z,4.72
2023-02-09T07:39:49.172Z,4.78
2023-02-09T07:42:15.908Z,5.07
2023-02-09T07:44:49.358Z,4.60
2023-02-09T07:47:16.108Z,4.38
2023-02-09T07:49:42.825Z,4.40
2023-02-09T07:52:09.502Z,5.05
2023-02-09T07:54:36.386Z,4.72
2023-02-09T07:57:03.229Z,5.40
2023-02-09T07:59:29.832Z,4.78
2023-02-09T08:01:56.565Z,4.85
2023-02-09T08:04:24.011Z,4.35
2023-02-09T08:06:50.748Z,4.40
2023-02-09T08:09:17.486Z,4.90
2023-02-09T08:11:53.297Z,4.55
2023-02-09T08:14:27.735Z,4.43
2023-02-09T08:17:17.988Z,4.40
2023-02-09T08:19:58.681Z,4.03
2023-02-09T08:22:30.110Z,4.47
2023-02-09T08:24:57.947Z,4.72
2023-02-09T08:27:24.781Z,4.35
2023-02-09T08:29:51.882Z,4.15
2023-02-09T08:32:18.556Z,4.50
2023-02-09T08:34:45.137Z,4.55
2023-02-09T08:37:11.762Z,4.13
2023-02-09T08:39:38.425Z,4.05
2023-02-09T08:42:05.263Z,5.25
2023-02-09T08:44:31.917Z,4.30
2023-02-09T08:46:58.686Z,4.53
2023-02-09T08:49:25.473Z,4.70
2023-02-09T08:51:52.403Z,3.80
2023-02-09T08:54:19.333Z,4.38
2023-02-09T08:56:46.012Z,4.13
2023-02-09T08:59:12.734Z,4.20
2023-02-09T09:01:40.457Z,4.25
2023-02-09T09:04:07.860Z,3.83
2023-02-09T09:06:34.688Z,4.32
2023-02-09T09:09:01.640Z,4.15
2023-02-09T09:11:29.732Z,4.25
2023-02-09T09:13:58.297Z,4.10
2023-02-09T09:16:24.958Z,3.83
2023-02-09T09:18:51.621Z,4.43
2023-02-09T09:21:19.501Z,3.83
2023-02-09T09:23:47.373Z,4.20
2023-02-09T09:26:14.885Z,4.40
2023-02-09T09:28:41.575Z,4.55
2023-02-09T09:31:14.136Z,4.20
2023-02-09T09:33:41.991Z,4.50
2023-02-09T09:36:10.531Z,4.60
2023-02-09T09:38:39.416Z,4.93
2023-02-09T09:41:19.037Z,4.80
2023-02-09T09:43:45.786Z,4.93
2023-02-09T09:46:19.189Z,4.35
2023-02-09T09:48:52.895Z,4.65
2023-02-09T09:51:42.807Z,4.70
2023-02-09T09:54:21.878Z,4.90
2023-02-09T09:56:49.861Z,4.85
2023-02-09T09:59:20.451Z,5.18
2023-02-09T10:01:49.706Z,4.32
2023-02-09T10:04:16.590Z,4.38
2023-02-09T10:06:45.869Z,4.60
2023-02-09T10:09:29.606Z,4.32
2023-02-09T10:12:07.575Z,4.57
2023-02-09T10:14:34.219Z,4.32
2023-02-09T10:17:00.971Z,4.20
2023-02-09T10:19:29.311Z,4.68
2023-02-09T10:21:56.274Z,4.22
2023-02-09T10:24:31.316Z,4.57
2023-02-09T10:27:21.260Z,4.32
2023-02-09T10:29:48.431Z,4.57
2023-02-09T10:32:23.724Z,4.07
2023-02-09T10:34:53.250Z,4.30
2023-02-09T10:40:08.900Z,4.40
2023-02-09T10:42:37.757Z,4.35
2023-02-09T10:45:26.785Z,4.07
2023-02-09T10:48:23.581Z,3.78
2023-02-09T10:50:53.481Z,4.25
2023-02-09T10:53:31.503Z,4.43
2023-02-09T10:56:22.609Z,4.10
2023-02-09T11:07:32.187Z,4.18
2023-02-09T11:10:01.990Z,3.78
2023-02-09T11:12:29.215Z,4.32
2023-02-09T11:14:56.133Z,4.57
2023-02-09T11:17:28.113Z,3.75
2023-02-09T11:20:00.404Z,4.10
2023-02-09T11:22:30.006Z,3.97
2023-02-09T11:25:23.056Z,4.45
2023-02-09T11:28:34.725Z,4.90
2023-02-09T11:31:22.910Z,5.25
2023-02-09T11:33:57.794Z,5.93
2023-02-09T11:36:55.009Z,6.25
2023-02-09T11:39:43.429Z,5.72
2023-02-09T11:42:36.505Z,6.18
2023-02-09T11:45:29.399Z,6.47
2023-02-09T11:48:18.219Z,5.97
2023-02-09T11:51:08.859Z,6.38
2023-02-09T11:53:57.137Z,6.47
2023-02-09T11:56:25.831Z,7.10
2023-02-09T11:59:37.168Z,6.63
2023-02-09T12:02:41.846Z,6.07
2023-02-09T12:05:14.822Z,5.80
2023-02-09T12:07:43.976Z,6.70
2023-02-09T12:10:13.067Z,6.30
2023-02-09T12:12:48.959Z,6.20
2023-02-09T12:15:24.373Z,6.05
2023-02-09T12:17:56.971Z,6.00
2023-02-09T12:20:38.852Z,5.45
2023-02-09T12:23:30.390Z,6.28
2023-02-09T12:26:54.614Z,6.10
2023-02-09T12:29:40.056Z,5.70
2023-02-09T12:32:06.862Z,5.93
2023-02-09T12:34:41.829Z,5.55
2023-02-09T12:37:14.520Z,5.88
2023-02-09T12:40:12.109Z,5.53
2023-02-09T12:42:40.837Z,5.45
2023-02-09T12:45:43.835Z,5.90
2023-02-09T12:48:19.286Z,5.63
2023-02-09T12:50:52.438Z,5.45
2023-02-09T12:53:21.642Z,5.18
2023-02-09T12:56:07.157Z,5.63
2023-02-09T12:58:39.170Z,5.78
2023-02-09T13:01:06.624Z,5.55
2023-02-09T13:03:43.946Z,5.40
2023-02-09T13:06:27.141Z,5.45
2023-02-09T13:08:57.268Z,5.72
2023-02-09T13:11:30.486Z,5.10
2023-02-09T13:14:03.265Z,5.07
2023-02-09T13:16:30.188Z,4.78
2023-02-09T13:18:59.889Z,5.38
2023-02-09T13:21:27.194Z,5.20
2023-02-09T13:23:53.886Z,5.10
2023-02-09T13:26:24.618Z,4.57
2023-02-09T13:29:20.325Z,5.03
2023-02-09T13:32:11.712Z,5.00
2023-02-09T13:34:41.269Z,4.80
2023-02-09T13:37:45.331Z,5.05
2023-02-09T13:40:24.970Z,4.68
2023-02-09T13:43:11.617Z,4.55
2023-02-09T13:45:49.655Z,4.30
2023-02-09T13:48:38.375Z,4.60
2023-02-09T13:51:16.206Z,4.83
2023-02-09T13:53:56.244Z,4.43
2023-02-09T13:56:23.380Z,4.95
2023-02-09T13:58:50.426Z,4.60
2023-02-09T14:01:27.350Z,4.20
2023-02-09T14:04:17.914Z,4.20
2023-02-09T14:07:08.917Z,3.92
2023-02-09T14:10:01.378Z,4.28
2023-02-09T14:12:59.908Z,4.07
2023-02-09T14:15:50.292Z,4.03
2023-02-09T14:18:45.794Z,4.20
2023-02-09T14:21:15.561Z,4.40
2023-02-09T14:23:45.233Z,4.78
2023-02-09T14:26:15.276Z,4.47
2023-02-09T14:28:50.165Z,4.53
2023-02-09T14:31:23.681Z,4.15
2023-02-09T14:33:53.460Z,4.25
2023-02-09T14:36:24.534Z,4.45
2023-02-09T14:38:51.908Z,4.45
2023-02-09T14:41:31.875Z,4.30
2023-02-09T14:44:14.383Z,4.28
2023-02-09T14:46:53.884Z,4.35
2023-02-09T14:49:21.418Z,4.10
2023-02-09T14:51:50.495Z,4.47
2023-02-09T14:54:25.482Z,4.60
2023-02-09T14:56:54.713Z,3.42
2023-02-09T14:59:22.179Z,4.25
2023-02-09T15:01:51.825Z,3.50
2023-02-09T15:04:19.520Z,3.90
2023-02-09T15:06:50.166Z,4.13
2023-02-09T15:09:37.087Z,3.88
2023-02-09T15:12:05.083Z,3.95
2023-02-09T15:14:47.166Z,3.90
2023-02-09T15:17:17.584Z,3.75
2023-02-09T15:19:45.814Z,4.05
2023-02-09T15:22:15.254Z,4.30
2023-02-09T15:27:23.061Z,4.03
2023-02-09T15:29:49.713Z,4.25
2023-02-09T15:32:18.534Z,3.97
2023-02-09T15:34:45.611Z,3.97
2023-02-09T15:37:25.393Z,3.88
2023-02-09T15:39:59.575Z,4.13
2023-02-09T15:42:45.187Z,3.58
2023-02-09T15:45:40.335Z,3.90
2023-02-09T15:48:08.077Z,3.58
2023-02-09T15:50:38.867Z,4.18
2023-02-09T15:53:08.454Z,3.85
2023-02-09T15:55:36.098Z,3.83
2023-02-09T15:58:04.227Z,4.13
2023-02-09T16:00:31.466Z,3.97
2023-02-09T16:03:01.455Z,3.92
2023-02-09T16:05:30.145Z,3.83
2023-02-09T16:07:58.854Z,3.72
2023-02-09T16:10:28.647Z,4.13
2023-02-09T16:12:56.594Z,3.85
2023-02-09T16:15:26.076Z,3.80
2023-02-09T16:17:53.074Z,4.30
2023-02-09T16:20:20.275Z,3.53
2023-02-09T16:22:49.158Z,4.03
2023-02-09T16:25:25.094Z,4.10
2023-02-09T16:27:53.582Z,3.65
2023-02-09T16:30:27.558Z,3.70
2023-02-09T16:32:55.037Z,4.03
2023-02-09T16:35:24.396Z,4.03
2023-02-09T16:37:52.829Z,3.85
2023-02-09T16:40:31.561Z,4.18
2023-02-09T16:43:01.093Z,3.65
2023-02-09T16:45:30.395Z,3.75
2023-02-09T16:50:33.262Z,3.47
2023-02-09T16:53:03.234Z,3.75
2023-02-09T16:55:33.216Z,3.67
2023-02-09T16:58:02.159Z,3.40
2023-02-09T17:00:36.291Z,3.95
2023-02-09T17:03:09.351Z,4.05
2023-02-09T17:05:37.191Z,3.70
2023-02-09T17:08:12.382Z,3.70
2023-02-09T17:10:39.221Z,3.83
2023-02-09T17:13:05.812Z,4.00
2023-02-09T17:15:45.129Z,4.30
2023-02-09T17:20:53.046Z,3.92
2023-02-09T17:23:23.478Z,4.10
2023-02-09T17:25:51.571Z,3.42
2023-02-09T17:28:19.320Z,4.15
2023-02-09T17:30:47.778Z,4.10
2023-02-09T17:33:23.818Z,4.13
2023-02-09T17:38:42.081Z,3.97
2023-02-09T17:41:29.093Z,4.10
2023-02-09T17:44:13.853Z,3.72
2023-02-09T17:46:45.103Z,3.75
2023-02-09T17:49:12.192Z,4.10
2023-02-09T17:51:41.494Z,4.15
2023-02-09T17:54:14.440Z,4.30
2023-02-09T17:56:41.666Z,3.92
2023-02-09T17:59:08.492Z,3.75
2023-02-09T18:01:40.541Z,3.47
2023-02-09T18:04:07.926Z,3.80
2023-02-09T18:06:40.740Z,3.63
2023-02-09T18:09:10.938Z,3.70
2023-02-09T18:12:03.681Z,3.67
2023-02-09T18:14:33.549Z,3.75
2023-02-09T18:17:02.237Z,3.78
2023-02-09T18:19:29.102Z,4.07
2023-02-09T18:21:59.045Z,4.28
2023-02-09T18:24:28.893Z,4.00
2023-02-09T18:26:55.780Z,4.18
2023-02-09T18:29:26.197Z,4.03
2023-02-09T18:31:53.099Z,4.10
2023-02-09T18:34:19.956Z,4.07
2023-02-09T18:36:46.885Z,3.70
2023-02-09T18:39:15.314Z,3.50
2023-02-09T18:41:42.380Z,3.67
2023-02-09T18:44:09.900Z,3.85
2023-02-09T18:46:36.785Z,4.10
2023-02-09T18:49:03.870Z,3.88
2023-02-09T18:51:31.328Z,4.03
2023-02-09T18:53:58.912Z,4.00
2023-02-09T18:56:28.181Z,3.80
2023-02-09T18:58:55.236Z,3.90
2023-02-09T19:01:23.083Z,3.53
2023-02-09T19:03:53.828Z,3.83
2023-02-09T19:06:22.436Z,3.50
2023-02-09T19:08:50.443Z,3.53
2023-02-09T19:11:20.191Z,4.05
2023-02-09T19:14:05.973Z,3.65
2023-02-09T19:16:33.864Z,3.63
2023-02-09T19:19:00.784Z,4.03
2023-02-09T19:21:28.342Z,3.97
2023-02-09T19:23:55.334Z,4.28
2023-02-09T19:26:22.005Z,4.10
2023-02-09T19:28:48.746Z,4.60
2023-02-09T19:31:17.504Z,4.20
2023-02-09T19:33:44.649Z,4.00
2023-02-09T19:36:11.810Z,4.20
2023-02-09T19:38:38.634Z,3.83
2023-02-09T19:41:12.053Z,4.45
2023-02-09T19:43:40.129Z,4.10
2023-02-09T19:46:07.939Z,4.00
2023-02-09T19:48:34.785Z,4.65
2023-02-09T19:51:01.669Z,4.32
2023-02-09T19:53:28.631Z,4.07
2023-02-09T19:55:55.959Z,4.22
2023-02-09T19:58:23.157Z,4.25
2023-02-09T20:00:51.412Z,4.18
2023-02-09T20:03:18.772Z,4.32
2023-02-09T20:05:46.286Z,4.78
2023-02-09T20:08:16.650Z,4.28
2023-02-09T20:10:44.464Z,4.85
2023-02-09T20:13:14.449Z,4.45
2023-02-09T20:15:42.746Z,3.95
2023-02-09T20:18:10.874Z,4.30
2023-02-09T20:23:10.084Z,4.28
2023-02-09T20:25:40.894Z,4.20
2023-02-09T20:28:07.918Z,4.45
2023-02-09T20:30:35.414Z,4.50
2023-02-09T20:33:02.253Z,4.57
2023-02-09T20:35:29.097Z,4.93
2023-02-09T20:37:55.939Z,4.63
2023-02-09T20:40:23.828Z,3.92
2023-02-09T20:43:08.809Z,4.65
2023-02-09T20:45:54.125Z,4.45
2023-02-09T20:48:20.810Z,4.30
2023-02-09T20:50:47.796Z,5.13
2023-02-09T20:53:14.760Z,4.90
2023-02-09T20:55:42.954Z,5.30
2023-02-09T20:58:13.498Z,4.85
2023-02-09T21:00:42.142Z,5.15
2023-02-09T21:03:09.240Z,4.37
2023-02-09T21:05:36.081Z,4.78
2023-02-09T21:08:04.479Z,4.95
2023-02-09T21:10:35.846Z,4.93
2023-02-09T21:13:03.652Z,4.53
2023-02-09T21:15:30.316Z,5.15
2023-02-09T21:17:57.281Z,5.05
2023-02-09T21:20:24.157Z,4.95
2023-02-09T21:22:51.837Z,5.20
2023-02-09T21:25:19.465Z,4.72
2023-02-09T21:27:46.284Z,4.57
2023-02-09T21:30:13.728Z,5.22
2023-02-09T21:32:40.651Z,5.28
2023-02-09T21:35:10.195Z,5.20
2023-02-09T21:37:38.891Z,5.00
2023-02-09T21:40:06.586Z,5.00
2023-02-09T21:42:35.507Z,4.90
2023-02-09T21:45:02.429Z,5.67
2023-02-09T21:47:34.313Z,5.18
2023-02-09T21:50:01.097Z,5.32
2023-02-09T21:52:28.301Z,5.45
2023-02-09T21:54:55.089Z,5.35
2023-02-09T21:57:22.727Z,5.43
2023-02-09T21:59:49.574Z,5.82
2023-02-09T22:02:18.315Z,5.72
2023-02-09T22:04:46.705Z,5.35
2023-02-09T22:07:14.836Z,5.35
2023-02-09T22:09:41.618Z,5.95
2023-02-09T22:12:08.645Z,5.57
2023-02-09T22:14:35.736Z,5.72
2023-02-09T22:17:02.610Z,5.63
2023-02-09T22:19:29.357Z,6.40
2023-02-09T22:21:58.113Z,6.00
2023-02-09T22:24:25.219Z,5.80
2023-02-09T22:26:52.071Z,6.20
2023-02-09T22:29:19.592Z,6.15
2023-02-09T22:31:46.578Z,6.38
2023-02-09T22:34:13.499Z,6.50
2023-02-09T22:36:40.287Z,6.28
2023-02-09T22:39:07.418Z,5.93
2023-02-09T22:41:34.432Z,6.45
2023-02-09T22:44:04.533Z,6.30
2023-02-09T22:46:35.018Z,6.15
2023-02-09T22:49:07.859Z,6.10
2023-02-09T22:51:36.150Z,6.10
2023-02-09T22:54:04.019Z,6.90
2023-02-09T22:56:31.057Z,6.80
2023-02-09T22:59:00.099Z,6.40
2023-02-09T23:01:28.509Z,6.32
2023-02-09T23:03:55.505Z,6.80
2023-02-09T23:06:24.644Z,6.22
2023-02-09T23:08:56.232Z,6.03
2023-02-09T23:11:23.376Z,6.57
2023-02-09T23:13:55.066Z,7.07
2023-02-09T23:16:34.171Z,6.57
2023-02-09T23:19:04.425Z,6.63
2023-02-09T23:21:34.616Z,6.65
2023-02-09T23:24:01.901Z,6.50
2023-02-09T23:26:29.454Z,7.35
2023-02-09T23:28:59.877Z,7.25
2023-02-09T23:31:27.053Z,7.03
2023-02-09T23:33:54.509Z,6.63
2023-02-09T23:36:24.708Z,6.30
2023-02-09T23:38:56.524Z,6.93
2023-02-09T23:41:23.862Z,6.70
2023-02-09T23:43:51.843Z,6.82
2023-02-09T23:46:22.178Z,6.82
2023-02-09T23:48:50.179Z,6.60
2023-02-09T23:51:24.226Z,6.55
2023-02-09T23:53:51.077Z,6.40
2023-02-09T23:56:18.564Z,6.68
2023-02-09T23:58:47.370Z,6.80
